createdAt,value
2022-11-15T00:01:21.363Z,108.03
2022-11-15T00:04:10.074Z,105.95
2022-11-15T00:06:56.792Z,109.05
2022-11-15T00:09:46.217Z,107.10
2022-11-15T00:12:32.834Z,107.05
2022-11-15T00:15:19.779Z,108.45
2022-11-15T00:18:09.039Z,110.93
2022-11-15T00:20:57.587Z,113.72
2022-11-15T00:23:46.642Z,105.53
2022-11-15T00:26:37.096Z,110.38
2022-11-15T00:29:25.225Z,112.40
2022-11-15T00:32:13.166Z,113.72
2022-11-15T00:35:00.960Z,111.97
2022-11-15T00:37:51.538Z,110.38
2022-11-15T00:40:39.405Z,104.57
2022-11-15T00:43:29.303Z,113.07
2022-11-15T00:46:17.123Z,122.82
2022-11-15T00:49:04.190Z,123.68
2022-11-15T00:51:52.351Z,116.53
2022-11-15T00:54:41.220Z,106.53
2022-11-15T00:57:30.182Z,104.68
2022-11-15T01:00:19.076Z,108.10
2022-11-15T01:03:08.514Z,109.70
2022-11-15T01:06:01.926Z,109.68
2022-11-15T01:08:50.290Z,119.60
2022-11-15T01:11:38.646Z,116.28
2022-11-15T01:14:25.875Z,114.55
2022-11-15T01:17:14.495Z,115.30
2022-11-15T01:20:01.259Z,127.75
2022-11-15T01:22:48.898Z,118.95
2022-11-15T01:25:35.384Z,106.35
2022-11-15T01:28:23.318Z,109.07
2022-11-15T01:31:17.599Z,110.15
2022-11-15T01:34:06.790Z,108.78
2022-11-15T01:36:55.803Z,111.18
2022-11-15T01:39:42.256Z,109.35
2022-11-15T01:42:29.995Z,113.50
2022-11-15T01:45:19.493Z,117.70
2022-11-15T01:48:10.395Z,114.55
2022-11-15T01:51:01.298Z,116.85
2022-11-15T01:53:55.388Z,110.40
2022-11-15T01:56:51.127Z,107.13
2022-11-15T01:59:42.384Z,112.22
2022-11-15T02:02:30.702Z,110.30
2022-11-15T02:05:17.818Z,108.03
2022-11-15T02:08:08.514Z,105.25
2022-11-15T02:10:55.102Z,108.35
2022-11-15T02:13:44.389Z,106.97
2022-11-15T02:16:45.477Z,109.80
2022-11-15T02:22:57.745Z,111.20
2022-11-15T02:26:00.366Z,113.85
2022-11-15T02:29:04.462Z,118.57
2022-11-15T02:32:02.669Z,121.10
2022-11-15T02:34:58.498Z,110.93
2022-11-15T02:37:55.180Z,116.13
2022-11-15T02:40:49.327Z,118.95
2022-11-15T02:44:01.161Z,121.63
2022-11-15T02:47:08.974Z,123.30
2022-11-15T02:50:03.807Z,118.30
2022-11-15T02:52:52.875Z,116.35
2022-11-15T02:55:45.544Z,116.03
2022-11-15T02:59:27.167Z,121.72
2022-11-15T03:05:36.878Z,120.72
2022-11-15T03:08:33.986Z,118.28
2022-11-15T03:11:25.180Z,112.32
2022-11-15T03:14:27.675Z,110.97
2022-11-15T03:17:25.366Z,109.65
2022-11-15T03:20:16.284Z,112.20
2022-11-15T03:23:10.225Z,111.47
2022-11-15T03:26:00.341Z,112.00
2022-11-15T03:28:53.100Z,109.70
2022-11-15T03:31:50.731Z,105.10
2022-11-15T03:34:44.149Z,107.43
2022-11-15T03:37:39.649Z,112.88
2022-11-15T03:40:37.338Z,110.78
2022-11-15T03:43:37.251Z,120.57
2022-11-15T03:46:30.581Z,138.20
2022-11-15T03:49:23.947Z,100.13
2022-11-15T03:52:14.620Z,98.20
2022-11-15T03:55:06.025Z,264.73
2022-11-15T03:58:00.498Z,268.92
2022-11-15T04:00:48.692Z,279.40
2022-11-15T04:03:36.595Z,235.55
2022-11-15T04:06:23.691Z,264.42
2022-11-15T04:09:11.561Z,264.17
2022-11-15T04:11:59.965Z,266.02
2022-11-15T04:15:07.979Z,169.50
2022-11-15T04:18:00.956Z,186.70
2022-11-15T04:21:05.358Z,232.88
2022-11-15T04:24:12.128Z,236.10
2022-11-15T04:27:00.763Z,261.38
2022-11-15T04:29:50.209Z,159.15
2022-11-15T04:32:38.256Z,232.00
2022-11-15T04:35:24.806Z,91.18
2022-11-15T04:38:13.687Z,98.13
2022-11-15T04:41:02.317Z,190.52
2022-11-15T04:43:50.730Z,99.03
2022-11-15T04:46:40.252Z,97.25
2022-11-15T04:49:27.434Z,96.53
2022-11-15T04:52:15.675Z,97.07
2022-11-15T04:55:07.986Z,101.13
2022-11-15T04:58:03.615Z,96.40
2022-11-15T05:00:51.996Z,105.47
2022-11-15T05:04:00.441Z,103.78
2022-11-15T05:06:47.984Z,100.10
2022-11-15T05:09:36.563Z,98.57
2022-11-15T05:12:25.946Z,83.78
2022-11-15T05:15:14.325Z,97.38
2022-11-15T05:18:02.983Z,96.50
2022-11-15T05:20:52.192Z,99.55
2022-11-15T05:23:40.540Z,98.13
2022-11-15T05:26:30.254Z,98.72
2022-11-15T05:29:18.537Z,100.40
2022-11-15T05:32:09.841Z,99.05
2022-11-15T05:34:58.343Z,102.10
2022-11-15T05:37:47.853Z,105.03
2022-11-15T05:40:37.508Z,112.38
2022-11-15T05:43:25.894Z,105.00
2022-11-15T05:46:15.813Z,97.13
2022-11-15T05:49:02.996Z,101.65
2022-11-15T05:51:52.137Z,107.18
2022-11-15T05:54:41.831Z,99.30
2022-11-15T05:57:30.931Z,99.45
2022-11-15T06:00:20.236Z,107.35
2022-11-15T06:03:08.570Z,114.93
2022-11-15T06:05:55.033Z,248.93
2022-11-15T06:08:45.563Z,126.78
2022-11-15T06:11:34.865Z,100.88
2022-11-15T06:14:23.131Z,105.15
2022-11-15T06:17:11.597Z,101.85
2022-11-15T06:19:58.228Z,104.88
2022-11-15T06:22:45.516Z,118.50
2022-11-15T06:25:34.249Z,100.20
2022-11-15T06:28:23.887Z,98.93
2022-11-15T06:31:12.920Z,101.60
2022-11-15T06:34:02.648Z,99.45
2022-11-15T06:36:52.288Z,96.70
2022-11-15T06:39:40.789Z,103.25
2022-11-15T06:42:29.265Z,101.32
2022-11-15T06:45:18.054Z,109.25
2022-11-15T06:48:05.459Z,105.68
2022-11-15T06:50:54.245Z,106.03
2022-11-15T06:53:42.281Z,107.40
2022-11-15T06:56:29.230Z,105.35
2022-11-15T06:59:17.265Z,116.13
2022-11-15T07:02:08.843Z,102.20
2022-11-15T07:04:56.487Z,104.32
2022-11-15T07:07:49.359Z,108.00
2022-11-15T07:10:35.823Z,103.38
2022-11-15T07:13:27.617Z,100.47
2022-11-15T07:16:16.413Z,104.60
2022-11-15T07:19:07.520Z,101.00
2022-11-15T07:21:56.616Z,102.93
2022-11-15T07:24:45.151Z,99.97
2022-11-15T07:27:35.036Z,99.70
2022-11-15T07:30:22.801Z,104.22
2022-11-15T07:33:09.701Z,114.70
2022-11-15T07:36:02.507Z,105.43
2022-11-15T07:38:49.541Z,105.70
2022-11-15T07:41:36.118Z,97.82
2022-11-15T07:44:24.142Z,97.13
2022-11-15T07:47:12.239Z,103.78
2022-11-15T07:49:58.737Z,104.85
2022-11-15T07:52:47.931Z,102.18
2022-11-15T07:55:36.113Z,104.57
2022-11-15T07:58:24.393Z,105.65
2022-11-15T08:01:15.803Z,105.53
2022-11-15T08:04:02.798Z,146.20
2022-11-15T08:06:50.785Z,112.28
2022-11-15T08:09:41.569Z,109.07
2022-11-15T08:12:30.651Z,109.10
2022-11-15T08:15:19.994Z,106.75
2022-11-15T08:18:12.679Z,108.43
2022-11-15T08:21:04.812Z,102.95
2022-11-15T08:23:51.877Z,107.25
2022-11-15T08:26:41.159Z,105.70
2022-11-15T08:29:30.763Z,104.05
2022-11-15T08:32:19.080Z,108.50
2022-11-15T08:35:09.487Z,115.22
2022-11-15T08:37:58.454Z,109.60
2022-11-15T08:40:48.402Z,106.22
2022-11-15T08:43:37.675Z,108.70
2022-11-15T08:46:25.988Z,107.70
2022-11-15T08:49:14.475Z,113.75
2022-11-15T08:52:04.892Z,110.07
2022-11-15T08:54:52.230Z,112.03
2022-11-15T08:57:38.876Z,116.10
2022-11-15T09:00:28.647Z,114.53
2022-11-15T09:03:17.388Z,119.15
2022-11-15T09:06:05.117Z,120.55
2022-11-15T09:08:52.296Z,117.45
2022-11-15T09:11:41.941Z,117.57
2022-11-15T09:14:29.957Z,129.23
2022-11-15T09:17:24.375Z,126.72
2022-11-15T09:20:14.598Z,126.68
2022-11-15T09:23:02.904Z,126.00
2022-11-15T09:25:52.807Z,126.40
2022-11-15T09:28:42.687Z,101.47
2022-11-15T09:31:30.338Z,115.57
2022-11-15T09:34:18.596Z,114.35
2022-11-15T09:37:08.279Z,117.32
2022-11-15T09:39:55.051Z,122.53
2022-11-15T09:43:26.757Z,119.47
2022-11-15T09:46:22.829Z,119.82
2022-11-15T09:49:13.864Z,95.32
2022-11-15T09:52:00.234Z,77.47
2022-11-15T09:57:26.782Z,70.70
2022-11-15T10:05:42.690Z,60.65
2022-11-15T10:08:31.804Z,63.75
2022-11-15T10:11:35.646Z,53.33
2022-11-15T10:13:59.770Z,56.47
2022-11-15T10:16:45.316Z,60.28
2022-11-15T10:19:25.713Z,73.65
2022-11-15T10:22:14.773Z,61.55
2022-11-15T10:24:48.908Z,63.88
2022-11-15T10:27:22.400Z,68.90
2022-11-15T10:29:52.415Z,64.85
2022-11-15T10:32:22.940Z,59.53
2022-11-15T10:34:52.150Z,62.90
2022-11-15T10:37:32.663Z,61.38
2022-11-15T10:40:17.928Z,61.90
2022-11-15T10:42:46.390Z,61.08
2022-11-15T10:45:32.971Z,61.20
2022-11-15T10:48:24.402Z,74.80
2022-11-15T10:50:56.983Z,68.35
2022-11-15T10:53:32.816Z,69.13
2022-11-15T10:56:10.355Z,60.63
2022-11-15T10:58:43.301Z,63.90
2022-11-15T11:01:17.345Z,62.53
2022-11-15T11:04:01.040Z,61.90
2022-11-15T11:06:32.049Z,61.58
2022-11-15T11:09:02.186Z,66.40
2022-11-15T11:11:50.337Z,62.15
2022-11-15T11:14:24.109Z,60.72
2022-11-15T11:16:57.596Z,65.32
2022-11-15T11:19:51.841Z,65.85
2022-11-15T11:22:29.820Z,60.47
2022-11-15T11:25:24.186Z,93.60
2022-11-15T11:28:14.836Z,84.53
2022-11-15T11:30:55.527Z,72.97
2022-11-15T11:33:32.405Z,73.97
2022-11-15T11:36:14.837Z,70.22
2022-11-15T11:39:00.028Z,73.38
2022-11-15T11:41:51.482Z,67.05
2022-11-15T11:44:45.229Z,69.80
2022-11-15T11:47:22.642Z,68.28
2022-11-15T11:49:57.065Z,65.70
2022-11-15T11:52:31.824Z,67.18
2022-11-15T11:55:15.568Z,63.80
2022-11-15T11:57:54.539Z,60.70
2022-11-15T12:00:28.217Z,53.78
2022-11-15T12:03:13.652Z,64.05
2022-11-15T12:05:45.385Z,67.43
2022-11-15T12:08:30.270Z,67.25
2022-11-15T12:11:05.826Z,65.45
2022-11-15T12:13:37.894Z,58.72
2022-11-15T12:16:25.179Z,53.05
2022-11-15T12:18:58.760Z,66.63
2022-11-15T12:21:41.732Z,58.38
2022-11-15T12:24:17.514Z,58.58
2022-11-15T12:26:54.874Z,71.47
2022-11-15T12:29:29.940Z,72.85
2022-11-15T12:32:03.133Z,72.47
2022-11-15T12:34:47.310Z,217.23
2022-11-15T12:37:51.300Z,130.80
2022-11-15T12:40:25.302Z,131.93
2022-11-15T12:43:32.741Z,135.80
2022-11-15T12:46:08.212Z,75.32
2022-11-15T12:48:54.660Z,68.03
2022-11-15T12:52:06.852Z,72.15
2022-11-15T12:55:01.315Z,68.20
2022-11-15T12:57:41.612Z,74.43
2022-11-15T13:00:40.049Z,69.13
2022-11-15T13:03:31.899Z,75.07
2022-11-15T13:06:40.069Z,88.78
2022-11-15T13:09:43.266Z,97.28
2022-11-15T13:12:36.515Z,122.93
2022-11-15T13:15:48.765Z,76.38
2022-11-15T13:18:40.870Z,93.78
2022-11-15T13:21:43.335Z,122.13
2022-11-15T13:24:17.838Z,66.93
2022-11-15T13:26:48.124Z,68.35
2022-11-15T13:29:19.796Z,66.28
2022-11-15T13:31:55.161Z,81.40
2022-11-15T13:37:34.963Z,99.80
2022-11-15T13:42:52.404Z,97.00
2022-11-15T13:45:22.835Z,121.03
2022-11-15T13:47:57.375Z,101.57
2022-11-15T13:50:33.160Z,103.80
2022-11-15T13:53:07.987Z,94.15
2022-11-15T13:55:36.778Z,128.82
2022-11-15T13:58:08.930Z,78.72
2022-11-15T14:00:43.096Z,66.55
2022-11-15T14:03:24.696Z,55.92
2022-11-15T14:06:09.240Z,67.40
2022-11-15T14:08:38.080Z,67.40
2022-11-15T14:11:20.615Z,58.92
2022-11-15T14:14:14.608Z,54.30
2022-11-15T14:16:45.858Z,62.03
2022-11-15T14:19:38.321Z,108.72
2022-11-15T14:22:22.476Z,118.07
2022-11-15T14:25:18.735Z,121.88
2022-11-15T14:28:18.395Z,64.90
2022-11-15T14:30:51.186Z,45.15
2022-11-15T14:33:24.916Z,45.97
2022-11-15T14:35:56.971Z,44.30
2022-11-15T14:38:25.707Z,42.22
2022-11-15T14:40:56.701Z,58.75
2022-11-15T14:43:26.301Z,48.90
2022-11-15T14:45:55.857Z,48.25
2022-11-15T14:48:26.294Z,46.55
2022-11-15T14:50:56.218Z,46.65
2022-11-15T14:53:24.435Z,52.80
2022-11-15T14:55:55.011Z,53.25
2022-11-15T14:58:24.741Z,50.63
2022-11-15T15:00:52.911Z,49.70
2022-11-15T15:03:22.266Z,47.08
2022-11-15T15:05:52.059Z,46.25
2022-11-15T15:08:21.841Z,45.25
2022-11-15T15:10:51.419Z,44.30
2022-11-15T15:13:22.818Z,44.22
2022-11-15T15:15:52.919Z,45.30
2022-11-15T15:18:23.822Z,46.67
2022-11-15T15:21:00.748Z,47.20
2022-11-15T15:23:33.898Z,43.22
2022-11-15T15:26:03.546Z,46.40
2022-11-15T15:28:35.000Z,43.88
2022-11-15T15:31:04.815Z,45.72
2022-11-15T15:33:34.565Z,46.60
2022-11-15T15:36:03.186Z,49.92
2022-11-15T15:38:34.319Z,52.67
2022-11-15T15:41:04.740Z,57.60
2022-11-15T15:43:34.070Z,56.63
2022-11-15T15:46:02.550Z,53.78
2022-11-15T15:48:32.342Z,53.33
2022-11-15T15:51:04.461Z,48.70
2022-11-15T15:53:38.809Z,47.90
2022-11-15T15:56:08.933Z,45.55
2022-11-15T15:58:38.590Z,45.67
2022-11-15T16:01:07.462Z,45.20
2022-11-15T16:03:36.034Z,51.20
2022-11-15T16:06:06.214Z,56.22
2022-11-15T16:08:53.483Z,54.65
2022-11-15T16:11:26.799Z,44.45
2022-11-15T16:13:57.698Z,41.90
2022-11-15T16:16:26.186Z,46.15
2022-11-15T16:18:56.616Z,46.75
2022-11-15T16:21:24.869Z,46.53
2022-11-15T16:23:53.523Z,52.03
2022-11-15T16:26:26.227Z,61.75
2022-11-15T16:28:58.648Z,56.83
2022-11-15T16:31:28.533Z,56.72
2022-11-15T16:33:58.475Z,64.63
2022-11-15T16:36:31.236Z,60.20
2022-11-15T16:39:01.711Z,58.45
2022-11-15T16:41:31.133Z,58.95
2022-11-15T16:44:00.602Z,65.00
2022-11-15T16:46:29.987Z,59.58
2022-11-15T16:48:59.773Z,61.33
2022-11-15T16:51:27.860Z,63.03
2022-11-15T16:53:58.723Z,60.88
2022-11-15T16:56:30.695Z,61.95
2022-11-15T17:01:35.369Z,57.22
2022-11-15T17:04:12.643Z,57.13
2022-11-15T17:06:41.948Z,55.75
2022-11-15T17:09:13.701Z,57.20
2022-11-15T17:11:43.380Z,61.97
2022-11-15T17:14:14.168Z,63.05
2022-11-15T17:19:16.086Z,58.83
2022-11-15T17:21:44.773Z,48.83
2022-11-15T17:24:14.112Z,47.08
2022-11-15T17:26:43.959Z,53.65
2022-11-15T17:29:13.966Z,52.70
2022-11-15T17:31:42.104Z,47.80
2022-11-15T17:34:12.023Z,59.95
2022-11-15T17:36:40.514Z,52.53
2022-11-15T17:39:11.106Z,46.83
2022-11-15T17:41:40.818Z,51.75
2022-11-15T17:44:09.337Z,45.97
2022-11-15T17:46:40.851Z,48.42
2022-11-15T17:49:12.208Z,48.17
2022-11-15T17:51:40.359Z,48.90
2022-11-15T17:54:13.868Z,48.05
2022-11-15T17:56:42.727Z,49.28
2022-11-15T17:59:18.586Z,47.15
2022-11-15T18:01:53.810Z,45.05
2022-11-15T18:04:29.239Z,54.97
2022-11-15T18:06:57.404Z,60.20
2022-11-15T18:09:28.062Z,57.25
2022-11-15T18:11:58.567Z,60.28
2022-11-15T18:14:28.317Z,59.05
2022-11-15T18:16:58.979Z,56.22
2022-11-15T18:19:28.409Z,50.53
2022-11-15T18:21:58.904Z,44.65
2022-11-15T18:24:30.719Z,45.65
2022-11-15T18:27:00.126Z,44.67
2022-11-15T18:29:34.481Z,47.10
2022-11-15T18:32:11.519Z,47.58
2022-11-15T18:34:42.274Z,44.92
2022-11-15T18:37:11.640Z,44.80
2022-11-15T18:39:40.256Z,46.35
2022-11-15T18:42:09.616Z,45.38
2022-11-15T18:44:38.164Z,44.47
2022-11-15T18:47:08.871Z,44.40
2022-11-15T18:49:38.181Z,45.13
2022-11-15T18:52:08.386Z,45.78
2022-11-15T18:54:39.152Z,44.33
2022-11-15T18:57:07.672Z,45.10
2022-11-15T18:59:35.832Z,44.00
2022-11-15T19:02:04.031Z,48.55
2022-11-15T19:04:36.075Z,45.53
2022-11-15T19:07:06.154Z,45.90
2022-11-15T19:09:36.311Z,45.00
2022-11-15T19:12:06.377Z,46.22
2022-11-15T19:14:34.885Z,46.47
2022-11-15T19:17:03.301Z,50.90
2022-11-15T19:19:34.357Z,48.33
2022-11-15T19:22:03.691Z,57.28
2022-11-15T19:24:33.642Z,63.28
2022-11-15T19:27:03.239Z,62.20
2022-11-15T19:29:32.918Z,48.88
2022-11-15T19:32:02.105Z,57.83
2022-11-15T19:34:30.282Z,62.70
2022-11-15T19:36:59.780Z,64.40
2022-11-15T19:39:27.939Z,55.88
2022-11-15T19:41:56.097Z,64.10
2022-11-15T19:44:28.530Z,58.10
2022-11-15T19:46:57.830Z,66.45
2022-11-15T19:49:28.594Z,62.50
2022-11-15T19:51:56.917Z,66.47
2022-11-15T19:54:27.714Z,65.03
2022-11-15T19:56:57.077Z,64.88
2022-11-15T19:59:27.645Z,66.10
2022-11-15T20:01:55.759Z,65.68
2022-11-15T20:04:24.449Z,66.22
2022-11-15T20:06:53.019Z,67.93
2022-11-15T20:09:22.496Z,64.15
2022-11-15T20:11:52.034Z,53.83
2022-11-15T20:14:22.644Z,53.05
2022-11-15T20:16:54.467Z,54.70
2022-11-15T20:19:22.915Z,49.50
2022-11-15T20:21:52.292Z,58.75
2022-11-15T20:24:22.733Z,48.85
2022-11-15T20:26:53.467Z,46.67
2022-11-15T20:29:23.323Z,45.75
2022-11-15T20:31:52.617Z,44.80
2022-11-15T20:34:20.972Z,43.20
2022-11-15T20:36:49.472Z,47.45
2022-11-15T20:39:20.261Z,43.20
2022-11-15T20:41:49.651Z,43.20
2022-11-15T20:44:20.366Z,41.95
2022-11-15T20:49:20.170Z,49.22
2022-11-15T20:51:48.499Z,46.55
2022-11-15T20:54:20.469Z,47.05
2022-11-15T20:56:48.555Z,44.63
2022-11-15T20:59:20.706Z,47.65
2022-11-15T21:01:50.728Z,43.10
2022-11-15T21:04:19.307Z,43.40
2022-11-15T21:06:50.657Z,42.28
2022-11-15T21:09:37.678Z,41.58
2022-11-15T21:12:15.973Z,41.40
2022-11-15T21:14:50.093Z,44.13
2022-11-15T21:17:19.825Z,43.03
2022-11-15T21:19:50.482Z,43.92
2022-11-15T21:22:18.940Z,42.67
2022-11-15T21:24:49.516Z,46.95
2022-11-15T21:27:19.231Z,45.10
2022-11-15T21:29:51.464Z,44.42
2022-11-15T21:32:21.752Z,44.03
2022-11-15T21:34:51.466Z,43.90
2022-11-15T21:37:19.627Z,43.22
2022-11-15T21:39:49.028Z,43.33
2022-11-15T21:42:18.623Z,42.78
2022-11-15T21:44:48.379Z,42.00
2022-11-15T21:47:19.206Z,43.88
2022-11-15T21:49:50.248Z,49.55
2022-11-15T21:52:18.829Z,46.35
2022-11-15T21:54:48.420Z,46.65
2022-11-15T21:57:18.892Z,42.75
2022-11-15T22:00:06.053Z,44.40
2022-11-15T22:02:36.801Z,43.88
2022-11-15T22:05:06.776Z,47.40
2022-11-15T22:07:36.304Z,43.83
2022-11-15T22:10:05.416Z,44.67
2022-11-15T22:12:33.582Z,45.65
2022-11-15T22:15:03.603Z,41.28
2022-11-15T22:17:46.873Z,45.80
2022-11-15T22:23:08.914Z,45.33
2022-11-15T22:25:38.511Z,45.22
2022-11-15T22:28:06.903Z,42.90
2022-11-15T22:30:36.190Z,42.17
2022-11-15T22:33:06.014Z,42.40
2022-11-15T22:35:38.720Z,42.25
2022-11-15T22:38:09.252Z,44.10
2022-11-15T22:40:41.678Z,44.15
2022-11-15T22:43:12.857Z,46.00
2022-11-15T22:45:53.059Z,42.60
2022-11-15T22:48:22.237Z,42.35
2022-11-15T22:50:52.211Z,45.42
2022-11-15T22:53:22.485Z,51.25
2022-11-15T22:55:54.860Z,47.05
2022-11-15T22:58:26.489Z,44.15
2022-11-15T23:00:57.126Z,47.55
2022-11-15T23:03:28.383Z,47.10
2022-11-15T23:06:03.060Z,45.92
2022-11-15T23:08:32.786Z,43.05
2022-11-15T23:11:20.710Z,43.10
2022-11-15T23:13:53.894Z,43.22
2022-11-15T23:16:35.161Z,43.05
2022-11-15T23:19:07.858Z,43.83
2022-11-15T23:21:58.727Z,41.95
2022-11-15T23:24:28.608Z,41.70
2022-11-15T23:26:59.749Z,42.03
2022-11-15T23:29:30.623Z,41.47
2022-11-15T23:35:01.107Z,43.63
2022-11-15T23:37:32.312Z,41.45
2022-11-15T23:40:03.374Z,41.15
2022-11-15T23:42:33.109Z,41.38
2022-11-15T23:45:02.577Z,46.78
2022-11-15T23:47:31.987Z,42.63
2022-11-15T23:50:02.714Z,46.08
2022-11-15T23:52:32.510Z,57.88
2022-11-15T23:55:02.224Z,45.78
2022-11-15T23:57:31.786Z,46.67
